San Francisco, California
Traffic Map
Current Weather Conditions
San Francisco, California
Broken Clouds
Broken Clouds
61°
Feels Like: 61°
Wind Chill: 61° Ceiling: 1000
Heat Index: 61° Visibility: 10mi
Dew Point: 55° Wind: 14mph
Humidity: 81% Direction: 270° (W)
Pressure: 29.94in Gusts: 0mph
Raw Report DataKSFO 080456Z 27012KT 10SM FEW007 BKN010 16/13 A2994 RMK AO2 SLP139 T01610128
Traffic Incident Summary
Active as of:
Severity:
Category:
InformationThere was an issue retrieving the traffic information for this location. Please try a different location or try again shortly.
Advertisements
Track Severe Weather on mobile